sensor_id;sensor_type;location;lat;lon;timestamp;P1;durP1;ratioP1;P2;durP2;ratioP2
73456;SDS011;61691;53.072;6.582;2023-06-10T00:00:28;17.52;;;4.63;;
73456;SDS011;61691;53.072;6.582;2023-06-10T00:02:58;18.42;;;4.57;;
73456;SDS011;61691;53.072;6.582;2023-06-10T00:05:26;15.90;;;4.13;;
73456;SDS011;61691;53.072;6.582;2023-06-10T00:07:56;17.27;;;4.25;;
73456;SDS011;61691;53.072;6.582;2023-06-10T00:10:23;19.52;;;5.00;;
73456;SDS011;61691;53.072;6.582;2023-06-10T00:12:51;16.55;;;4.53;;
73456;SDS011;61691;53.072;6.582;2023-06-10T00:15:18;17.17;;;4.93;;
73456;SDS011;61691;53.072;6.582;2023-06-10T00:17:45;18.08;;;4.53;;
73456;SDS011;61691;53.072;6.582;2023-06-10T00:20:12;16.48;;;4.38;;
73456;SDS011;61691;53.072;6.582;2023-06-10T00:22:39;18.25;;;5.18;;
73456;SDS011;61691;53.072;6.582;2023-06-10T00:25:08;17.13;;;4.20;;
73456;SDS011;61691;53.072;6.582;2023-06-10T00:27:37;16.10;;;4.35;;
73456;SDS011;61691;53.072;6.582;2023-06-10T00:30:05;16.38;;;4.45;;
73456;SDS011;61691;53.072;6.582;2023-06-10T00:32:34;17.42;;;4.72;;
73456;SDS011;61691;53.072;6.582;2023-06-10T00:35:02;17.75;;;4.88;;
73456;SDS011;61691;53.072;6.582;2023-06-10T00:37:30;15.40;;;4.15;;
73456;SDS011;61691;53.072;6.582;2023-06-10T00:39:56;18.13;;;4.32;;
73456;SDS011;61691;53.072;6.582;2023-06-10T00:42:23;15.73;;;4.38;;
73456;SDS011;61691;53.072;6.582;2023-06-10T00:44:51;18.75;;;4.60;;
73456;SDS011;61691;53.072;6.582;2023-06-10T00:47:18;17.95;;;4.68;;
73456;SDS011;61691;53.072;6.582;2023-06-10T00:49:45;18.98;;;4.75;;
73456;SDS011;61691;53.072;6.582;2023-06-10T00:52:12;18.83;;;5.53;;
73456;SDS011;61691;53.072;6.582;2023-06-10T00:54:41;17.50;;;4.63;;
73456;SDS011;61691;53.072;6.582;2023-06-10T00:57:08;19.40;;;5.10;;
73456;SDS011;61691;53.072;6.582;2023-06-10T00:59:35;16.55;;;4.50;;
73456;SDS011;61691;53.072;6.582;2023-06-10T01:02:03;21.50;;;4.65;;
73456;SDS011;61691;53.072;6.582;2023-06-10T01:04:30;15.23;;;4.18;;
73456;SDS011;61691;53.072;6.582;2023-06-10T01:09:32;17.70;;;4.97;;
73456;SDS011;61691;53.072;6.582;2023-06-10T01:14:45;15.93;;;4.40;;
73456;SDS011;61691;53.072;6.582;2023-06-10T01:17:15;19.30;;;5.18;;
73456;SDS011;61691;53.072;6.582;2023-06-10T01:19:43;15.13;;;3.90;;
73456;SDS011;61691;53.072;6.582;2023-06-10T01:22:10;18.38;;;5.00;;
73456;SDS011;61691;53.072;6.582;2023-06-10T01:24:42;18.08;;;5.25;;
73456;SDS011;61691;53.072;6.582;2023-06-10T01:27:11;18.08;;;5.70;;
73456;SDS011;61691;53.072;6.582;2023-06-10T01:29:45;17.27;;;4.43;;
73456;SDS011;61691;53.072;6.582;2023-06-10T01:32:53;19.05;;;4.93;;
73456;SDS011;61691;53.072;6.582;2023-06-10T01:35:14;16.45;;;4.53;;
73456;SDS011;61691;53.072;6.582;2023-06-10T01:37:43;17.90;;;5.22;;
73456;SDS011;61691;53.072;6.582;2023-06-10T01:40:12;16.52;;;4.88;;
73456;SDS011;61691;53.072;6.582;2023-06-10T01:42:40;18.70;;;5.00;;
73456;SDS011;61691;53.072;6.582;2023-06-10T01:45:08;17.27;;;4.25;;
73456;SDS011;61691;53.072;6.582;2023-06-10T01:47:35;16.70;;;4.93;;
73456;SDS011;61691;53.072;6.582;2023-06-10T01:50:01;18.38;;;4.43;;
73456;SDS011;61691;53.072;6.582;2023-06-10T01:52:28;17.92;;;4.85;;
73456;SDS011;61691;53.072;6.582;2023-06-10T01:54:55;15.88;;;4.63;;
73456;SDS011;61691;53.072;6.582;2023-06-10T01:57:22;18.27;;;4.70;;
73456;SDS011;61691;53.072;6.582;2023-06-10T01:59:49;16.70;;;4.63;;
73456;SDS011;61691;53.072;6.582;2023-06-10T02:02:15;16.90;;;4.75;;
73456;SDS011;61691;53.072;6.582;2023-06-10T02:04:42;14.85;;;4.38;;
73456;SDS011;61691;53.072;6.582;2023-06-10T02:07:09;18.60;;;5.00;;
73456;SDS011;61691;53.072;6.582;2023-06-10T02:09:36;17.00;;;4.55;;
73456;SDS011;61691;53.072;6.582;2023-06-10T02:12:03;18.23;;;5.07;;
73456;SDS011;61691;53.072;6.582;2023-06-10T02:14:31;18.38;;;4.88;;
73456;SDS011;61691;53.072;6.582;2023-06-10T02:16:58;18.00;;;4.50;;
73456;SDS011;61691;53.072;6.582;2023-06-10T02:19:25;19.42;;;4.75;;
73456;SDS011;61691;53.072;6.582;2023-06-10T02:21:54;17.48;;;4.25;;
73456;SDS011;61691;53.072;6.582;2023-06-10T02:24:21;16.67;;;5.10;;
73456;SDS011;61691;53.072;6.582;2023-06-10T02:26:48;16.20;;;4.55;;
73456;SDS011;61691;53.072;6.582;2023-06-10T02:29:14;17.35;;;4.85;;
73456;SDS011;61691;53.072;6.582;2023-06-10T02:31:41;16.10;;;4.50;;
73456;SDS011;61691;53.072;6.582;2023-06-10T02:34:08;16.88;;;4.45;;
73456;SDS011;61691;53.072;6.582;2023-06-10T02:36:35;16.33;;;4.90;;
73456;SDS011;61691;53.072;6.582;2023-06-10T02:39:02;14.43;;;4.60;;
73456;SDS011;61691;53.072;6.582;2023-06-10T02:41:30;17.10;;;4.38;;
73456;SDS011;61691;53.072;6.582;2023-06-10T02:43:57;17.67;;;4.63;;
73456;SDS011;61691;53.072;6.582;2023-06-10T02:46:24;17.70;;;4.45;;
73456;SDS011;61691;53.072;6.582;2023-06-10T02:48:51;16.88;;;4.05;;
73456;SDS011;61691;53.072;6.582;2023-06-10T02:51:18;19.00;;;4.72;;
73456;SDS011;61691;53.072;6.582;2023-06-10T02:53:45;15.23;;;4.35;;
73456;SDS011;61691;53.072;6.582;2023-06-10T02:56:11;19.65;;;5.47;;
73456;SDS011;61691;53.072;6.582;2023-06-10T02:58:39;16.20;;;4.65;;
73456;SDS011;61691;53.072;6.582;2023-06-10T03:01:05;18.45;;;4.70;;
73456;SDS011;61691;53.072;6.582;2023-06-10T03:03:32;18.38;;;4.75;;
73456;SDS011;61691;53.072;6.582;2023-06-10T03:06:00;17.80;;;4.63;;
73456;SDS011;61691;53.072;6.582;2023-06-10T03:08:28;16.50;;;4.95;;
73456;SDS011;61691;53.072;6.582;2023-06-10T03:10:55;16.17;;;4.60;;
73456;SDS011;61691;53.072;6.582;2023-06-10T03:13:21;17.52;;;4.93;;
73456;SDS011;61691;53.072;6.582;2023-06-10T03:15:50;17.60;;;5.05;;
73456;SDS011;61691;53.072;6.582;2023-06-10T03:18:16;16.58;;;4.75;;
73456;SDS011;61691;53.072;6.582;2023-06-10T03:20:43;19.05;;;5.32;;
73456;SDS011;61691;53.072;6.582;2023-06-10T03:23:10;18.10;;;4.60;;
73456;SDS011;61691;53.072;6.582;2023-06-10T03:25:38;17.58;;;4.80;;
73456;SDS011;61691;53.072;6.582;2023-06-10T03:28:04;16.88;;;5.22;;
73456;SDS011;61691;53.072;6.582;2023-06-10T03:30:31;17.02;;;4.82;;
73456;SDS011;61691;53.072;6.582;2023-06-10T03:32:58;17.90;;;5.05;;
73456;SDS011;61691;53.072;6.582;2023-06-10T03:35:26;17.92;;;4.82;;
73456;SDS011;61691;53.072;6.582;2023-06-10T03:37:53;21.40;;;5.65;;
73456;SDS011;61691;53.072;6.582;2023-06-10T03:40:19;19.77;;;5.28;;
73456;SDS011;61691;53.072;6.582;2023-06-10T03:42:46;16.50;;;4.65;;
73456;SDS011;61691;53.072;6.582;2023-06-10T03:45:13;18.10;;;4.78;;
73456;SDS011;61691;53.072;6.582;2023-06-10T03:47:40;16.13;;;4.93;;
73456;SDS011;61691;53.072;6.582;2023-06-10T03:50:07;19.83;;;5.28;;
73456;SDS011;61691;53.072;6.582;2023-06-10T03:52:35;16.33;;;4.78;;
73456;SDS011;61691;53.072;6.582;2023-06-10T03:55:02;23.52;;;6.18;;
73456;SDS011;61691;53.072;6.582;2023-06-10T03:57:30;17.92;;;4.97;;
73456;SDS011;61691;53.072;6.582;2023-06-10T03:59:57;20.95;;;5.20;;
73456;SDS011;61691;53.072;6.582;2023-06-10T04:02:24;20.00;;;4.95;;
73456;SDS011;61691;53.072;6.582;2023-06-10T04:04:51;18.52;;;4.70;;
73456;SDS011;61691;53.072;6.582;2023-06-10T04:07:18;19.08;;;5.50;;
73456;SDS011;61691;53.072;6.582;2023-06-10T04:09:46;16.95;;;4.30;;
73456;SDS011;61691;53.072;6.582;2023-06-10T04:12:13;18.10;;;5.05;;
73456;SDS011;61691;53.072;6.582;2023-06-10T04:14:40;17.48;;;4.80;;
73456;SDS011;61691;53.072;6.582;2023-06-10T04:17:08;17.00;;;4.13;;
73456;SDS011;61691;53.072;6.582;2023-06-10T04:19:35;17.67;;;4.63;;
73456;SDS011;61691;53.072;6.582;2023-06-10T04:22:01;17.15;;;4.55;;
73456;SDS011;61691;53.072;6.582;2023-06-10T04:24:30;16.60;;;4.40;;
73456;SDS011;61691;53.072;6.582;2023-06-10T04:26:57;17.92;;;4.82;;
73456;SDS011;61691;53.072;6.582;2023-06-10T04:29:24;16.88;;;4.82;;
73456;SDS011;61691;53.072;6.582;2023-06-10T04:31:50;19.70;;;4.32;;
73456;SDS011;61691;53.072;6.582;2023-06-10T04:34:17;18.42;;;4.40;;
73456;SDS011;61691;53.072;6.582;2023-06-10T04:36:44;16.15;;;4.43;;
73456;SDS011;61691;53.072;6.582;2023-06-10T04:39:10;18.13;;;4.78;;
73456;SDS011;61691;53.072;6.582;2023-06-10T04:41:37;16.92;;;4.22;;
73456;SDS011;61691;53.072;6.582;2023-06-10T04:44:04;16.58;;;4.20;;
73456;SDS011;61691;53.072;6.582;2023-06-10T04:46:31;16.33;;;4.47;;
73456;SDS011;61691;53.072;6.582;2023-06-10T04:48:58;17.02;;;4.50;;
73456;SDS011;61691;53.072;6.582;2023-06-10T04:51:25;20.02;;;4.60;;
73456;SDS011;61691;53.072;6.582;2023-06-10T04:53:52;18.50;;;4.68;;
73456;SDS011;61691;53.072;6.582;2023-06-10T04:56:19;18.40;;;5.00;;
73456;SDS011;61691;53.072;6.582;2023-06-10T04:58:46;18.48;;;5.05;;
73456;SDS011;61691;53.072;6.582;2023-06-10T05:01:13;17.10;;;4.55;;
73456;SDS011;61691;53.072;6.582;2023-06-10T05:03:40;16.92;;;4.38;;
73456;SDS011;61691;53.072;6.582;2023-06-10T05:06:07;15.82;;;4.43;;
73456;SDS011;61691;53.072;6.582;2023-06-10T05:08:33;16.52;;;4.43;;
73456;SDS011;61691;53.072;6.582;2023-06-10T05:11:00;17.23;;;4.10;;
73456;SDS011;61691;53.072;6.582;2023-06-10T05:13:27;17.52;;;4.45;;
73456;SDS011;61691;53.072;6.582;2023-06-10T05:15:53;19.52;;;5.03;;
73456;SDS011;61691;53.072;6.582;2023-06-10T05:18:20;19.70;;;4.95;;
73456;SDS011;61691;53.072;6.582;2023-06-10T05:20:47;18.30;;;4.40;;
73456;SDS011;61691;53.072;6.582;2023-06-10T05:23:15;17.65;;;4.45;;
73456;SDS011;61691;53.072;6.582;2023-06-10T05:25:42;17.67;;;4.03;;
73456;SDS011;61691;53.072;6.582;2023-06-10T05:28:09;18.88;;;5.00;;
73456;SDS011;61691;53.072;6.582;2023-06-10T05:30:41;17.80;;;4.53;;
73456;SDS011;61691;53.072;6.582;2023-06-10T05:33:07;16.60;;;4.50;;
73456;SDS011;61691;53.072;6.582;2023-06-10T05:35:34;17.20;;;4.70;;
73456;SDS011;61691;53.072;6.582;2023-06-10T05:38:01;16.52;;;4.55;;
73456;SDS011;61691;53.072;6.582;2023-06-10T05:40:29;19.48;;;5.28;;
73456;SDS011;61691;53.072;6.582;2023-06-10T05:42:56;17.38;;;4.55;;
73456;SDS011;61691;53.072;6.582;2023-06-10T05:45:22;17.55;;;4.32;;
73456;SDS011;61691;53.072;6.582;2023-06-10T05:47:49;17.00;;;4.38;;
73456;SDS011;61691;53.072;6.582;2023-06-10T05:50:17;17.25;;;4.60;;
73456;SDS011;61691;53.072;6.582;2023-06-10T05:52:43;17.48;;;4.43;;
73456;SDS011;61691;53.072;6.582;2023-06-10T05:55:10;19.23;;;4.38;;
73456;SDS011;61691;53.072;6.582;2023-06-10T05:57:37;16.95;;;4.47;;
73456;SDS011;61691;53.072;6.582;2023-06-10T06:00:04;18.67;;;4.93;;
73456;SDS011;61691;53.072;6.582;2023-06-10T06:02:31;18.65;;;4.63;;
73456;SDS011;61691;53.072;6.582;2023-06-10T06:05:01;19.45;;;4.50;;
73456;SDS011;61691;53.072;6.582;2023-06-10T06:07:28;16.25;;;4.63;;
73456;SDS011;61691;53.072;6.582;2023-06-10T06:09:54;16.50;;;4.53;;
73456;SDS011;61691;53.072;6.582;2023-06-10T06:12:21;18.58;;;4.95;;
73456;SDS011;61691;53.072;6.582;2023-06-10T06:14:48;17.83;;;4.85;;
73456;SDS011;61691;53.072;6.582;2023-06-10T06:17:15;16.63;;;4.43;;
73456;SDS011;61691;53.072;6.582;2023-06-10T06:19:42;17.33;;;4.72;;
73456;SDS011;61691;53.072;6.582;2023-06-10T06:22:09;18.25;;;4.40;;
73456;SDS011;61691;53.072;6.582;2023-06-10T06:24:36;16.35;;;4.20;;
73456;SDS011;61691;53.072;6.582;2023-06-10T06:27:03;18.55;;;4.47;;
73456;SDS011;61691;53.072;6.582;2023-06-10T06:29:30;16.48;;;4.60;;
73456;SDS011;61691;53.072;6.582;2023-06-10T06:31:57;17.52;;;3.97;;
73456;SDS011;61691;53.072;6.582;2023-06-10T06:34:24;17.95;;;4.53;;
73456;SDS011;61691;53.072;6.582;2023-06-10T06:36:51;17.98;;;4.60;;
73456;SDS011;61691;53.072;6.582;2023-06-10T06:39:18;18.63;;;4.78;;
73456;SDS011;61691;53.072;6.582;2023-06-10T06:41:45;16.90;;;4.72;;
73456;SDS011;61691;53.072;6.582;2023-06-10T06:44:12;16.60;;;5.00;;
73456;SDS011;61691;53.072;6.582;2023-06-10T06:46:39;18.05;;;4.57;;
73456;SDS011;61691;53.072;6.582;2023-06-10T06:49:05;18.77;;;4.32;;
73456;SDS011;61691;53.072;6.582;2023-06-10T06:51:32;17.20;;;4.57;;
73456;SDS011;61691;53.072;6.582;2023-06-10T06:53:59;17.23;;;4.70;;
73456;SDS011;61691;53.072;6.582;2023-06-10T06:56:26;16.83;;;4.55;;
73456;SDS011;61691;53.072;6.582;2023-06-10T06:58:54;17.35;;;3.90;;
73456;SDS011;61691;53.072;6.582;2023-06-10T07:01:23;16.83;;;4.70;;
73456;SDS011;61691;53.072;6.582;2023-06-10T07:03:50;16.02;;;4.05;;
73456;SDS011;61691;53.072;6.582;2023-06-10T07:06:17;17.48;;;4.32;;
73456;SDS011;61691;53.072;6.582;2023-06-10T07:08:43;16.50;;;4.65;;
73456;SDS011;61691;53.072;6.582;2023-06-10T07:11:10;15.82;;;4.20;;
73456;SDS011;61691;53.072;6.582;2023-06-10T07:13:37;15.75;;;3.97;;
73456;SDS011;61691;53.072;6.582;2023-06-10T07:16:04;16.15;;;4.00;;
73456;SDS011;61691;53.072;6.582;2023-06-10T07:18:30;16.02;;;4.53;;
73456;SDS011;61691;53.072;6.582;2023-06-10T07:20:57;18.30;;;4.60;;
73456;SDS011;61691;53.072;6.582;2023-06-10T07:23:24;17.40;;;4.03;;
73456;SDS011;61691;53.072;6.582;2023-06-10T07:25:51;18.52;;;4.43;;
73456;SDS011;61691;53.072;6.582;2023-06-10T07:28:18;18.95;;;4.50;;
73456;SDS011;61691;53.072;6.582;2023-06-10T07:30:44;17.23;;;4.18;;
73456;SDS011;61691;53.072;6.582;2023-06-10T07:33:11;16.25;;;4.13;;
73456;SDS011;61691;53.072;6.582;2023-06-10T07:35:38;16.88;;;4.22;;
73456;SDS011;61691;53.072;6.582;2023-06-10T07:38:05;16.88;;;4.03;;
73456;SDS011;61691;53.072;6.582;2023-06-10T07:40:31;16.00;;;3.90;;
73456;SDS011;61691;53.072;6.582;2023-06-10T07:43:00;15.48;;;3.95;;
73456;SDS011;61691;53.072;6.582;2023-06-10T07:45:27;16.55;;;4.72;;
73456;SDS011;61691;53.072;6.582;2023-06-10T07:47:54;15.18;;;4.00;;
73456;SDS011;61691;53.072;6.582;2023-06-10T07:50:22;16.98;;;4.72;;
73456;SDS011;61691;53.072;6.582;2023-06-10T07:52:50;17.38;;;4.30;;
73456;SDS011;61691;53.072;6.582;2023-06-10T07:55:17;16.92;;;4.25;;
73456;SDS011;61691;53.072;6.582;2023-06-10T07:57:43;16.88;;;4.45;;
73456;SDS011;61691;53.072;6.582;2023-06-10T08:00:10;18.05;;;4.78;;
73456;SDS011;61691;53.072;6.582;2023-06-10T08:02:37;17.05;;;4.30;;
73456;SDS011;61691;53.072;6.582;2023-06-10T08:05:05;16.40;;;4.50;;
73456;SDS011;61691;53.072;6.582;2023-06-10T08:07:32;19.13;;;4.97;;
73456;SDS011;61691;53.072;6.582;2023-06-10T08:10:00;16.90;;;4.60;;
73456;SDS011;61691;53.072;6.582;2023-06-10T08:12:26;15.88;;;4.70;;
73456;SDS011;61691;53.072;6.582;2023-06-10T08:14:54;18.65;;;4.63;;
73456;SDS011;61691;53.072;6.582;2023-06-10T08:17:21;16.00;;;4.50;;
73456;SDS011;61691;53.072;6.582;2023-06-10T08:19:48;19.13;;;5.13;;
73456;SDS011;61691;53.072;6.582;2023-06-10T08:22:15;16.48;;;4.55;;
73456;SDS011;61691;53.072;6.582;2023-06-10T08:24:42;18.25;;;4.30;;
73456;SDS011;61691;53.072;6.582;2023-06-10T08:27:08;16.70;;;4.55;;
73456;SDS011;61691;53.072;6.582;2023-06-10T08:29:35;17.50;;;4.13;;
73456;SDS011;61691;53.072;6.582;2023-06-10T08:32:02;17.05;;;4.97;;
73456;SDS011;61691;53.072;6.582;2023-06-10T08:34:29;17.50;;;4.50;;
73456;SDS011;61691;53.072;6.582;2023-06-10T08:36:56;17.05;;;4.25;;
73456;SDS011;61691;53.072;6.582;2023-06-10T08:39:23;16.35;;;4.50;;
73456;SDS011;61691;53.072;6.582;2023-06-10T08:42:00;16.95;;;4.25;;
73456;SDS011;61691;53.072;6.582;2023-06-10T08:44:28;17.10;;;3.88;;
73456;SDS011;61691;53.072;6.582;2023-06-10T08:46:56;16.58;;;4.70;;
73456;SDS011;61691;53.072;6.582;2023-06-10T08:49:27;16.90;;;4.32;;
73456;SDS011;61691;53.072;6.582;2023-06-10T08:51:58;14.88;;;3.75;;
73456;SDS011;61691;53.072;6.582;2023-06-10T08:54:27;17.08;;;4.28;;
73456;SDS011;61691;53.072;6.582;2023-06-10T08:56:58;18.38;;;4.50;;
73456;SDS011;61691;53.072;6.582;2023-06-10T08:59:26;17.00;;;4.25;;
73456;SDS011;61691;53.072;6.582;2023-06-10T09:01:53;16.77;;;4.13;;
73456;SDS011;61691;53.072;6.582;2023-06-10T09:04:21;15.57;;;3.90;;
73456;SDS011;61691;53.072;6.582;2023-06-10T09:06:48;14.98;;;3.67;;
73456;SDS011;61691;53.072;6.582;2023-06-10T09:09:16;16.42;;;4.13;;
73456;SDS011;61691;53.072;6.582;2023-06-10T09:14:13;16.40;;;4.38;;
73456;SDS011;61691;53.072;6.582;2023-06-10T09:16:40;16.35;;;3.80;;
73456;SDS011;61691;53.072;6.582;2023-06-10T09:19:08;16.52;;;4.25;;
73456;SDS011;61691;53.072;6.582;2023-06-10T09:21:36;19.40;;;4.43;;
73456;SDS011;61691;53.072;6.582;2023-06-10T09:24:03;14.88;;;4.20;;
73456;SDS011;61691;53.072;6.582;2023-06-10T09:26:31;17.98;;;4.03;;
73456;SDS011;61691;53.072;6.582;2023-06-10T09:29:04;15.73;;;3.95;;
73456;SDS011;61691;53.072;6.582;2023-06-10T09:31:34;17.50;;;4.25;;
73456;SDS011;61691;53.072;6.582;2023-06-10T09:34:06;16.43;;;3.77;;
73456;SDS011;61691;53.072;6.582;2023-06-10T09:36:33;15.48;;;3.50;;
73456;SDS011;61691;53.072;6.582;2023-06-10T09:39:02;16.85;;;4.03;;
73456;SDS011;61691;53.072;6.582;2023-06-10T09:41:32;15.90;;;3.70;;
73456;SDS011;61691;53.072;6.582;2023-06-10T09:44:12;14.02;;;3.40;;
73456;SDS011;61691;53.072;6.582;2023-06-10T09:46:41;16.50;;;4.18;;
73456;SDS011;61691;53.072;6.582;2023-06-10T09:49:08;16.30;;;3.63;;
73456;SDS011;61691;53.072;6.582;2023-06-10T09:51:35;17.05;;;3.78;;
73456;SDS011;61691;53.072;6.582;2023-06-10T09:54:02;15.98;;;3.95;;
73456;SDS011;61691;53.072;6.582;2023-06-10T09:56:33;14.82;;;3.80;;
73456;SDS011;61691;53.072;6.582;2023-06-10T09:59:01;14.95;;;3.50;;
73456;SDS011;61691;53.072;6.582;2023-06-10T10:01:30;14.55;;;3.47;;
73456;SDS011;61691;53.072;6.582;2023-06-10T10:03:57;15.13;;;3.50;;
73456;SDS011;61691;53.072;6.582;2023-06-10T10:06:24;15.15;;;3.65;;
73456;SDS011;61691;53.072;6.582;2023-06-10T10:08:51;13.85;;;3.75;;
73456;SDS011;61691;53.072;6.582;2023-06-10T10:11:21;15.05;;;3.28;;
73456;SDS011;61691;53.072;6.582;2023-06-10T10:13:49;13.82;;;3.72;;
73456;SDS011;61691;53.072;6.582;2023-06-10T10:16:36;15.82;;;3.55;;
73456;SDS011;61691;53.072;6.582;2023-06-10T10:19:07;16.63;;;3.50;;
73456;SDS011;61691;53.072;6.582;2023-06-10T10:21:42;16.75;;;4.13;;
73456;SDS011;61691;53.072;6.582;2023-06-10T10:24:26;16.27;;;3.83;;
73456;SDS011;61691;53.072;6.582;2023-06-10T10:27:00;15.25;;;3.50;;
73456;SDS011;61691;53.072;6.582;2023-06-10T10:29:38;16.70;;;3.60;;
73456;SDS011;61691;53.072;6.582;2023-06-10T10:32:06;14.68;;;3.75;;
73456;SDS011;61691;53.072;6.582;2023-06-10T10:34:36;14.45;;;3.40;;
73456;SDS011;61691;53.072;6.582;2023-06-10T10:37:10;15.73;;;3.92;;
73456;SDS011;61691;53.072;6.582;2023-06-10T10:39:37;14.18;;;3.10;;
73456;SDS011;61691;53.072;6.582;2023-06-10T10:42:04;18.45;;;3.42;;
73456;SDS011;61691;53.072;6.582;2023-06-10T10:44:39;17.10;;;3.60;;
73456;SDS011;61691;53.072;6.582;2023-06-10T10:47:10;15.48;;;3.28;;
73456;SDS011;61691;53.072;6.582;2023-06-10T10:49:37;13.52;;;3.13;;
73456;SDS011;61691;53.072;6.582;2023-06-10T10:52:10;15.48;;;2.95;;
73456;SDS011;61691;53.072;6.582;2023-06-10T10:54:43;15.93;;;3.97;;
73456;SDS011;61691;53.072;6.582;2023-06-10T10:59:54;14.43;;;3.45;;
73456;SDS011;61691;53.072;6.582;2023-06-10T11:05:11;13.95;;;2.95;;
73456;SDS011;61691;53.072;6.582;2023-06-10T11:07:40;15.23;;;3.58;;
73456;SDS011;61691;53.072;6.582;2023-06-10T11:10:08;14.85;;;3.22;;
73456;SDS011;61691;53.072;6.582;2023-06-10T11:15:12;13.95;;;3.03;;
73456;SDS011;61691;53.072;6.582;2023-06-10T11:18:26;14.00;;;3.38;;
73456;SDS011;61691;53.072;6.582;2023-06-10T11:26:17;13.60;;;3.53;;
73456;SDS011;61691;53.072;6.582;2023-06-10T11:33:53;14.77;;;3.67;;
73456;SDS011;61691;53.072;6.582;2023-06-10T11:36:24;14.30;;;3.55;;
73456;SDS011;61691;53.072;6.582;2023-06-10T11:38:53;14.82;;;3.72;;
73456;SDS011;61691;53.072;6.582;2023-06-10T11:41:25;13.88;;;3.35;;
73456;SDS011;61691;53.072;6.582;2023-06-10T11:43:53;14.70;;;3.15;;
73456;SDS011;61691;53.072;6.582;2023-06-10T11:46:24;17.48;;;3.50;;
73456;SDS011;61691;53.072;6.582;2023-06-10T11:48:55;12.05;;;2.70;;
73456;SDS011;61691;53.072;6.582;2023-06-10T11:51:28;28.23;;;3.63;;
73456;SDS011;61691;53.072;6.582;2023-06-10T11:53:56;14.32;;;3.30;;
73456;SDS011;61691;53.072;6.582;2023-06-10T11:56:23;15.70;;;3.25;;
73456;SDS011;61691;53.072;6.582;2023-06-10T11:58:58;14.43;;;3.10;;
73456;SDS011;61691;53.072;6.582;2023-06-10T12:01:31;15.57;;;3.17;;
73456;SDS011;61691;53.072;6.582;2023-06-10T12:06:53;17.33;;;4.13;;
73456;SDS011;61691;53.072;6.582;2023-06-10T12:20:01;16.30;;;3.33;;
73456;SDS011;61691;53.072;6.582;2023-06-10T12:22:42;14.88;;;3.47;;
73456;SDS011;61691;53.072;6.582;2023-06-10T12:25:11;15.75;;;3.65;;
73456;SDS011;61691;53.072;6.582;2023-06-10T12:27:40;18.17;;;3.47;;
73456;SDS011;61691;53.072;6.582;2023-06-10T12:30:19;12.38;;;2.67;;
73456;SDS011;61691;53.072;6.582;2023-06-10T12:32:46;15.38;;;3.22;;
73456;SDS011;61691;53.072;6.582;2023-06-10T12:35:16;13.48;;;3.15;;
73456;SDS011;61691;53.072;6.582;2023-06-10T12:38:00;13.65;;;3.05;;
73456;SDS011;61691;53.072;6.582;2023-06-10T12:40:34;15.25;;;3.30;;
73456;SDS011;61691;53.072;6.582;2023-06-10T12:43:07;12.95;;;2.97;;
73456;SDS011;61691;53.072;6.582;2023-06-10T12:45:37;14.82;;;3.20;;
73456;SDS011;61691;53.072;6.582;2023-06-10T12:48:19;17.08;;;3.33;;
73456;SDS011;61691;53.072;6.582;2023-06-10T12:50:53;14.30;;;3.33;;
73456;SDS011;61691;53.072;6.582;2023-06-10T12:53:21;13.32;;;3.30;;
73456;SDS011;61691;53.072;6.582;2023-06-10T12:55:50;14.05;;;2.78;;
73456;SDS011;61691;53.072;6.582;2023-06-10T12:58:18;12.82;;;3.20;;
73456;SDS011;61691;53.072;6.582;2023-06-10T13:00:46;13.52;;;3.22;;
73456;SDS011;61691;53.072;6.582;2023-06-10T13:03:15;14.55;;;3.08;;
73456;SDS011;61691;53.072;6.582;2023-06-10T13:05:42;15.68;;;3.30;;
73456;SDS011;61691;53.072;6.582;2023-06-10T13:08:09;15.10;;;3.08;;
73456;SDS011;61691;53.072;6.582;2023-06-10T13:10:36;15.60;;;3.25;;
73456;SDS011;61691;53.072;6.582;2023-06-10T13:13:03;11.82;;;3.15;;
73456;SDS011;61691;53.072;6.582;2023-06-10T13:15:36;13.00;;;3.22;;
73456;SDS011;61691;53.072;6.582;2023-06-10T13:18:10;15.27;;;3.60;;
73456;SDS011;61691;53.072;6.582;2023-06-10T13:20:37;16.00;;;3.67;;
73456;SDS011;61691;53.072;6.582;2023-06-10T13:23:05;14.70;;;3.33;;
73456;SDS011;61691;53.072;6.582;2023-06-10T13:25:32;14.63;;;3.30;;
73456;SDS011;61691;53.072;6.582;2023-06-10T13:27:58;13.20;;;3.22;;
73456;SDS011;61691;53.072;6.582;2023-06-10T13:30:25;11.55;;;2.88;;
73456;SDS011;61691;53.072;6.582;2023-06-10T13:32:52;13.82;;;3.25;;
73456;SDS011;61691;53.072;6.582;2023-06-10T13:35:20;14.00;;;3.28;;
73456;SDS011;61691;53.072;6.582;2023-06-10T13:37:46;14.30;;;3.47;;
73456;SDS011;61691;53.072;6.582;2023-06-10T13:40:13;14.30;;;3.25;;
73456;SDS011;61691;53.072;6.582;2023-06-10T13:42:40;14.55;;;3.40;;
73456;SDS011;61691;53.072;6.582;2023-06-10T13:45:07;13.52;;;3.30;;
73456;SDS011;61691;53.072;6.582;2023-06-10T13:47:36;15.70;;;3.40;;
73456;SDS011;61691;53.072;6.582;2023-06-10T13:50:03;13.18;;;3.33;;
73456;SDS011;61691;53.072;6.582;2023-06-10T13:52:30;16.90;;;3.30;;
73456;SDS011;61691;53.072;6.582;2023-06-10T13:54:57;15.35;;;3.00;;
73456;SDS011;61691;53.072;6.582;2023-06-10T13:57:24;13.73;;;3.10;;
73456;SDS011;61691;53.072;6.582;2023-06-10T13:59:51;14.93;;;3.60;;
73456;SDS011;61691;53.072;6.582;2023-06-10T14:02:18;15.82;;;3.75;;
73456;SDS011;61691;53.072;6.582;2023-06-10T14:04:44;14.57;;;3.50;;
73456;SDS011;61691;53.072;6.582;2023-06-10T14:07:11;14.35;;;3.35;;
73456;SDS011;61691;53.072;6.582;2023-06-10T14:09:38;15.50;;;3.15;;
73456;SDS011;61691;53.072;6.582;2023-06-10T14:12:05;16.55;;;3.35;;
73456;SDS011;61691;53.072;6.582;2023-06-10T14:14:32;12.57;;;3.22;;
73456;SDS011;61691;53.072;6.582;2023-06-10T14:16:59;16.20;;;3.20;;
73456;SDS011;61691;53.072;6.582;2023-06-10T14:19:26;17.17;;;3.30;;
73456;SDS011;61691;53.072;6.582;2023-06-10T14:21:53;13.00;;;3.00;;
73456;SDS011;61691;53.072;6.582;2023-06-10T14:24:21;13.43;;;3.42;;
73456;SDS011;61691;53.072;6.582;2023-06-10T14:26:50;16.67;;;3.35;;
73456;SDS011;61691;53.072;6.582;2023-06-10T14:29:17;14.98;;;3.03;;
73456;SDS011;61691;53.072;6.582;2023-06-10T14:31:45;15.20;;;3.60;;
73456;SDS011;61691;53.072;6.582;2023-06-10T14:34:12;15.05;;;3.10;;
73456;SDS011;61691;53.072;6.582;2023-06-10T14:36:39;13.32;;;3.10;;
73456;SDS011;61691;53.072;6.582;2023-06-10T14:39:05;17.05;;;3.30;;
73456;SDS011;61691;53.072;6.582;2023-06-10T14:41:32;14.55;;;3.10;;
73456;SDS011;61691;53.072;6.582;2023-06-10T14:43:59;14.77;;;3.30;;
73456;SDS011;61691;53.072;6.582;2023-06-10T14:46:25;12.73;;;3.00;;
73456;SDS011;61691;53.072;6.582;2023-06-10T14:48:52;16.65;;;2.65;;
73456;SDS011;61691;53.072;6.582;2023-06-10T14:51:19;15.25;;;3.03;;
73456;SDS011;61691;53.072;6.582;2023-06-10T14:53:47;12.85;;;2.90;;
73456;SDS011;61691;53.072;6.582;2023-06-10T14:56:14;12.15;;;2.78;;
73456;SDS011;61691;53.072;6.582;2023-06-10T14:58:40;14.50;;;2.70;;
73456;SDS011;61691;53.072;6.582;2023-06-10T15:01:07;13.65;;;2.70;;
73456;SDS011;61691;53.072;6.582;2023-06-10T15:03:34;15.00;;;2.80;;
73456;SDS011;61691;53.072;6.582;2023-06-10T15:06:01;13.73;;;2.58;;
73456;SDS011;61691;53.072;6.582;2023-06-10T15:08:28;11.85;;;2.63;;
73456;SDS011;61691;53.072;6.582;2023-06-10T15:10:55;17.38;;;3.10;;
73456;SDS011;61691;53.072;6.582;2023-06-10T15:13:23;13.55;;;3.38;;
73456;SDS011;61691;53.072;6.582;2023-06-10T15:15:50;13.90;;;2.88;;
73456;SDS011;61691;53.072;6.582;2023-06-10T15:18:17;13.88;;;2.78;;